Итоги за сутки : Австралия

Индекс Название Дата Температура воздуха Влажность воздуха Эффективная температура Ветер Миним
видим
Атмосферное давление Облачность Осадки Снежный покров Число случев Макс.диаметр
мм
Число сроков
Т ср
(°C)
dТ ср
(°C)
adj dТ ср
(°C)
Т мин
(°C)
Т макс
(°C)
f ср
(%)
f мин
(%)
Тe мин
(°C)
Тe макс
(°C)
Тes макс
(°C)
ср
(м/с)
порыв
(м/с)
P ср
(гПа)
P мин
(гПа)
P макс
(гПа)
Po ср
(гПа)
Po мин
(гПа)
Po макс
(гПа)
общ,
балл
нижн,
балл
ночь
мм
день
мм
сумма
мм
высота
см
покры-
тие
дожд снег туман мгла метель позёмок гроза смерч п.буря п.позём. град голо-
лед
изм. сн.отл.
94100 Калумбуру 20.08.2019 +28.7 +20.6 +34.6 17 11 +23 +30 +30 4.0 7 1016.0 1013.8 1018.8 1013.2 1011.0 1016.0 0.0 0.0 0.0 16
94102 Остров Троутон 20.08.2019 +26.1 +23.4 +29.9 58 28 +27 +33 +33 7.3 13 1016.1 1014.6 1018.6 1015.2 1013.7 1017.7 0.0 16
94103 Остров Брауз 20.08.2019 +26.7 +25.4 +28.5 +21 +23 +23 6.2 10 1015.4 1014.2 1017.2 1014.9 1013.7 1016.7 16
94116 Остров Дам-ин-Мирре 20.08.2019 +25.7 +21.3 +33.9 59 21 +25 +33 +33 2.0 4 1015.1 1012.2 1017.3 1014.6 1011.7 1016.8 0.0 0.0 0.0 1 1 8
94119 Гарден-Пойнт 20.08.2019 +25.9 +20.8 +32.5 61 27 +24 +31 +31 1.9 4 1014.9 1012.7 1016.7 1012.7 1010.5 1014.5 0.0 8
94120 Дарвин 20.08.2019 +26.4 +22.7 +33.8 45 12 +23 +33 +33 3.4 7 20 км 1015.3 1012.3 1017.5 1011.3 1008.6 1013.7 0.3 0.1 0.0 16
94122 Остров Батерст 20.08.2019 +25.8 +0.1 +17.4 +31.0 57 27 +18 +31 +31 3.1 7 1015.2 1012.9 1017.2 1014.3 1012.0 1016.3 0.0 14
94125 Батчелор 20.08.2019 +26.3 +21.3 +33.1 30 14 +22 +30 +30 4.6 7 1015.8 1013.0 1017.9 1003.7 1001.0 1005.8 0.0 1 8
94127 Пойнт Стьюарт 20.08.2019 +26.6 -0.1 +20.4 +32.0 45 23 0.0 0 1015.4 1012.8 1017.3 1015.2 1012.6 1017.1 0.0 5
94128 Маяк Кейп-Дон 20.08.2019 +23.9 +16.6 +31.6 22 13 +18 +27 +27 5.5 7 1017.1 1014.3 1019.5 1012.0 1009.2 1014.4 0.0 8
94130 Манбуллу Ксиро 20.08.2019 +25.1 +0.3 +21.2 +28.9 14 12 +21 +26 +26 6.4 8 1019.3 1016.9 1022.0 1010.5 1008.1 1013.2 0.0 5
94131 Тиндал 20.08.2019 +23.3 +16.8 +29.7 18 13 +17 +26 +26 5.8 8 1018.0 1015.4 1021.0 1002.4 999.8 1005.4 1.0 0.0 0.0 16
94135 Остров Маклер 20.08.2019 +24.9 0.0 +23.9 +26.2 62 57 +27 +30 +30 12.2 14 1015.2 1013.2 1016.7 1014.9 1012.9 1016.4 0.0 5
94137 Джаберу 20.08.2019 +27.0 +23.4 +32.5 26 19 +23 +29 +29 4.5 6 1015.9 1013.4 1017.7 1012.7 1010.2 1014.5 4.0 4.0 0.0 8
94139 Уорруви 20.08.2019 +26.1 +23.3 +30.9 45 32 +25 +32 +32 6.3 8 1016.0 1013.8 1017.6 1013.7 1011.5 1015.3 0.0 8
94140 Милинджимби 20.08.2019 +24.6 +19.9 +32.2 46 30 +21 +32 +32 5.4 7 1016.4 1014.4 1018.0 1014.5 1012.5 1016.1 0.0 8
94141 Центральное плато Арнем 20.08.2019 +22.1 +18.2 +28.4 29 18 +18 +25 +25 6.1 9 1016.5 1014.6 1018.5 969.4 967.5 971.3 0.0 8
94143 Булман Уимол 20.08.2019 +21.8 +15.2 +29.0 36 15 +15 +26 +26 3.4 6 1018.2 1016.1 1020.1 1006.1 1004.0 1008.0 0.0 8
94147 Мыс Уэссел 20.08.2019 +25.0 +22.8 +29.2 73 56 +29 +34 +34 11.3 13 1015.7 1013.9 1017.1 1013.5 1011.7 1014.9 0.0 16
94150 Аэропорт Гоув 20.08.2019 +23.1 +21.2 +26.8 63 55 +25 +29 +29 7.3 10 1016.8 1015.3 1018.6 1010.7 1009.2 1012.4 8.5 8.5 0.0 16
94152 Борролоола 20.08.2019 +19.6 -2.5 +16.9 +27.6 18 12 +17 +25 +25 5.7 10 1019.9 1017.6 1022.7 1018.0 1015.7 1020.8 0.0 6
94153 Аэропорт Грут-Айленд 20.08.2019 +22.0 +16.9 +25.1 50 43 +17 +26 +26 3.9 6 1018.2 1017.3 1019.8 1016.5 1015.6 1018.1 0.0 8
94170 Аэропорт Вейпа 20.08.2019 +24.9 +17.7 +33.3 52 19 +18 +31 +31 5.2 9 5000 м 1015.4 1012.4 1016.7 1013.3 1010.3 1014.6 1.0 1.0 0.0 16
94171 База ВВС Scherger 20.08.2019 +24.4 +16.8 +33.0 53 20 +18 +30 +30 3.8 6 1015.6 1012.9 1016.9 1011.0 1008.3 1012.3 0.0 8
94174 Остров Хорн 20.08.2019 +24.4 +21.6 +29.6 73 53 +27 +33 +33 6.5 9 5000 м 1015.3 1013.4 1016.6 1014.7 1012.8 1016.0 9.7 9.7 0.0 1 1 1 8
94182 Остров Коконат 20.08.2019 +26.1 +23.0 +33.0 +19 +26 +26 1.3 2 1014.6 1012.9 1016.0 1014.1 1012.4 1015.5 0.0 8
94183 Коэн аэропорт 20.08.2019 +23.0 +14.1 +31.2 57 30 +17 +30 +30 4.4 8 1016.1 1014.1 1017.5 997.7 995.7 999.1 0.0 8
94186 Аэропорт Локхарт 20.08.2019 +22.7 +14.8 +28.3 73 55 +15 +31 +31 5.6 9 1016.5 1014.6 1017.9 1014.4 1012.5 1015.8 8.3 8.3 0.0 8
94188 Мыс Флэттери 20.08.2019 +23.3 +21.6 +27.2 74 66 +26 +31 +31 8.9 11 1017.5 1016.1 1019.2 1015.3 1013.9 1017.0 0.0 8
94200 Мандора 20.08.2019 +23.0 +16.7 +30.8 15 10 +16 +27 +27 6.0 8 1020.6 1018.1 1022.7 1019.7 1017.2 1021.8 0.0 16
94203 Брум 20.08.2019 +24.5 +18.9 +32.5 25 7 +19 +28 +28 6.3 9 1018.3 1015.8 1020.4 1017.2 1014.7 1019.3 0.0 16
94204 База ВВС Curtin 20.08.2019 +25.7 +19.7 +33.4 13 10 +19 +28 +28 7.5 9 1017.0 1014.8 1019.4 1008.0 1005.8 1010.4 0.0 16
94206 Фицрой-Кроссинг 20.08.2019 +23.8 +16.0 +31.4 13 8 +16 +27 +27 5.3 8 1019.7 1017.2 1022.2 1006.3 1003.9 1008.8 0.0 16
94207 Роули Шоалс 20.08.2019 +23.8 +23.0 +25.1 +19 +21 +21 12.0 15 1017.6 1016.2 1019.3 1016.7 1015.3 1018.4 0.0 16
94210 Остров Адель 20.08.2019 +26.1 -0.3 +25.2 +28.2 +21 +23 +23 6.3 10 1016.2 1014.8 1018.0 1015.6 1014.2 1017.4 7
94212 Холс Крик 20.08.2019 +20.4 +15.5 +26.3 15 9 +14 +23 +23 6.8 10 1020.9 1018.4 1023.9 973.9 971.5 976.8 0.0 16
94216 Кунунарра 20.08.2019 +25.4 +22.7 +29.7 14 11 +21 +25 +25 6.0 9 1018.8 1016.3 1021.9 1013.6 1011.1 1016.7 0.0 16
94217 Аэропорт Аргайл 20.08.2019 +23.6 +20.1 +28.5 15 10 +20 +25 +25 5.3 7 1020.6 1017.9 1024.0 1001.6 998.9 1004.9 3.5 0.0 0.0 8
94225 База ВВС Delamere Weapons Range 20.08.2019 +21.0 +16.6 +26.8 17 14 +16 +23 +23 5.6 8 1018.9 1016.4 1021.3 993.5 991.0 995.8 0.0 8
94231 Ладжаману 20.08.2019 +18.0 +12.6 +24.4 17 10 +12 +21 +21 7.5 9 1022.8 1019.9 1026.1 986.0 983.3 989.2 0.0 8
94232 Виктория-Ривер 20.08.2019 +21.7 +0.4 +17.8 +25.6 17 13 +17 +23 +23 5.4 7 21 км 1021.1 1018.6 1023.7 1010.6 1008.1 1013.2 0.0 0.0 0.0 5
94234 Дейли Уотерс 20.08.2019 +19.9 +14.8 +26.0 19 13 +15 +22 +22 5.5 7 1020.7 1018.4 1023.3 996.2 993.9 998.7 0.0 8
94238 Теннант-Крик 20.08.2019 +15.2 +9.8 +21.7 24 14 +6 +20 +20 9.1 11 1024.4 1021.7 1027.1 980.8 978.2 983.4 0.0 16
94239 Аэропорт Макартур Ривер Майн 20.08.2019 +21.5 +16.4 +27.7 15 10 +16 +24 +24 5.5 7 1020.6 1018.1 1023.6 1015.8 1013.3 1018.8 0.0 8
94248 Остров Центр 20.08.2019 +22.6 +19.0 +27.5 39 27 +19 +27 +27 7.8 12 1019.3 1017.3 1022.1 1017.8 1015.8 1020.6 0.0 16
94255 Камоауил 20.08.2019 +15.4 +8.3 +23.0 25 14 +5 +21 +21 7.8 10 1024.1 1021.3 1026.6 996.9 994.2 999.4 0.0 16
94260 Беркетаун 20.08.2019 +20.9 +15.6 +28.2 19 12 +15 +24 +24 7.9 10 1020.5 1018.2 1023.3 1019.7 1017.5 1022.5 0.0 8
94261 Рудник Century Mine 20.08.2019 +19.7 +12.9 +26.7 17 11 +12 +22 +22 4.8 6 1021.8 1019.5 1024.6 1007.0 1004.7 1009.7 0.0 8
94266 Нормантон 20.08.2019 +22.0 +16.9 +29.1 17 12 +16 +25 +25 7.9 9 1019.2 1017.2 1021.7 1017.0 1015.0 1019.5 0.0 8
94268 Кованьяма 20.08.2019 +24.3 +15.0 +33.3 31 19 +15 +30 +30 3.2 6 1016.6 1013.6 1019.1 1015.4 1012.4 1017.8 0.0 16
94274 Джорджтаун 20.08.2019 +22.5 +13.1 +30.8 27 17 +14 +27 +27 3.9 6 1018.0 1015.8 1020.2 983.3 981.1 985.4 0.0 8
94276 Палмервилл 20.08.2019 +22.0 +10.9 +32.4 50 23 +10 +29 +29 3.0 5 1016.5 1013.9 1018.6 993.0 990.4 995.0 0.0 8
94285 Остров Лоу 20.08.2019 +22.9 +20.7 +27.0 68 53 +24 +30 +30 7.8 10 1018.6 1016.7 1020.5 1018.1 1016.2 1020.0 0.0 8
94287 Кэрнс 20.08.2019 +21.0 +14.1 +27.5 62 36 +14 +28 +28 5.7 11 1018.6 1016.6 1020.8 1018.3 1016.3 1020.5 9.0 9.0 0.0 16
94289 Холмс Риф 20.08.2019 +23.6 0.0 +23.0 +24.1 +19 +20 +20 10.3 13 1016.5 1015.1 1018.3 1015.8 1014.4 1017.6 6
94290 Флиндер Риф 20.08.2019 +22.7 +21.8 +23.8 +19 +19 +19 10.8 13 1018.1 1015.8 1020.5 1017.3 1015.0 1019.7 16
94294 Таунсвилл 20.08.2019 +20.2 +13.0 +27.6 57 20 +13 +28 +28 4.5 9 1019.8 1017.4 1022.1 1019.2 1016.7 1021.6 0.0 16
94295 Лусинда 20.08.2019 +20.8 +18.6 +23.1 63 38 +19 +25 +25 5.5 7 1019.7 1017.4 1021.7 1018.5 1016.2 1020.5 0.0 8
94298 Марион Риф 20.08.2019 +22.7 +22.0 +23.6 +19 +19 +19 9.9 12 1018.4 1016.1 1020.4 1017.5 1015.2 1019.5 16
94299 Остров Уиллис 20.08.2019 +23.5 +20.9 +26.6 76 66 +26 +31 +31 11.9 14 25 км 1016.6 1014.6 1018.8 1015.5 1013.5 1017.7 8.0 8.0 0.0 1 16
94300 Карнарвон 20.08.2019 +16.6 -0.1 +6.0 +27.9 24 9 +4 +23 +27 4.9 7 22 км 1025.4 1022.2 1028.3 1024.9 1021.7 1027.8 0.0 0.0 0.0 8
94302 Лермонт 20.08.2019 +17.4 +7.4 +26.1 32 8 +8 +23 +23 4.1 7 1023.4 1020.5 1025.9 1022.7 1019.8 1025.2 0.0 16
94303 Остров Тевенард 20.08.2019 +20.8 +17.7 +26.4 42 23 +18 +24 +24 6.4 11 1022.7 1020.2 1025.0 1022.1 1019.6 1024.4 0.0 8
94306 Марди 20.08.2019 +21.5 +14.4 +30.4 22 7 +14 +26 +26 5.9 10 1022.0 1018.8 1024.1 1020.6 1017.4 1022.7 0.0 16
94308 Роборн аэропорт 20.08.2019 +21.8 +15.4 +29.7 18 11 +14 +26 +26 8.3 13 1022.3 1019.1 1024.7 1021.0 1017.8 1023.4 0.0 16
94312 Порт-Хедленд Apardoo 20.08.2019 +20.6 +10.5 +29.7 20 11 +11 +25 +25 7.2 11 1021.9 1019.0 1024.4 1021.0 1018.1 1023.5 0.0 16
94316 Параберду 20.08.2019 +18.7 +12.7 +26.3 17 8 +11 +23 +23 7.4 9 1024.3 1021.0 1026.7 975.1 972.0 977.4 0.0 16
94317 Ньюман 20.08.2019 +15.2 +9.2 +22.7 25 11 +7 +20 +20 5.4 8 1026.8 1023.8 1029.5 965.9 963.0 968.4 0.0 16
94319 Телфер 20.08.2019 +17.1 +10.2 +24.4 22 11 +7 +22 +22 8.6 12 1024.4 1021.9 1027.1 990.4 987.9 993.0 0.0 16
94321 Кинтор 20.08.2019 +15.3 +9.2 +22.5 25 12 +7 +20 +20 7.3 9 1026.9 1024.4 1029.4 974.1 971.8 976.5 8
94326 Элис-Спрингс 20.08.2019 +9.0 +1.3 +17.3 38 22 -2 +15 +15 4.9 8 1030.5 1028.4 1033.2 966.3 964.3 968.8 0.0 16
94327 Джервойс 20.08.2019 +11.6 +4.9 +18.4 31 15 +2 +17 +17 5.4 8 1029.8 1027.6 1032.5 990.8 988.7 993.4 0.0 16
94328 Виноградная ферма 20.08.2019 +11.7 +3.9 +20.1 32 16 +2 +18 +18 5.3 8 1027.7 1025.1 1030.2 961.8 959.3 964.1 0.0 8
94332 Маунт-Айза 20.08.2019 +15.3 +9.9 +22.1 24 15 +7 +20 +20 6.4 9 1024.3 1021.9 1026.7 984.5 982.2 986.8 0.0 16
94335 Клонкарри 20.08.2019 +16.3 +9.6 +23.3 22 14 +8 +20 +20 6.5 9 1023.7 1021.7 1026.1 1001.8 999.9 1004.2 0.0 8
94336 Фосфат-Хилл 20.08.2019 +13.0 +6.5 +20.5 26 16 +3 +18 +18 6.0 8 1026.1 1024.6 1028.1 992.0 990.6 994.0 0.0 8
94337 Джулия Крик 20.08.2019 +16.1 +9.2 +24.8 24 13 +7 +22 +22 7.9 11 1023.4 1021.1 1025.9 1008.8 1006.6 1011.3 0.0 8
94338 Аэропорт Трепелл 20.08.2019 +12.8 +5.0 +21.3 26 14 +3 +19 +19 5.1 7 1025.3 1023.6 1027.5 993.9 992.3 996.0 0.0 8
94341 Ричмонд аэропорт 20.08.2019 +15.9 +7.7 +26.1 26 14 +5 +23 +23 6.3 9 1022.5 1020.0 1024.7 998.2 995.8 1000.4 0.0 16
94342 Уинтон 20.08.2019 +15.2 +8.7 +23.3 25 14 +8 +21 +21 6.1 11 1024.4 1022.6 1026.5 1001.6 999.9 1003.7 0.0 8
94343 Хьюэнден 20.08.2019 +16.0 +6.3 +25.3 22 12 +6 +22 +22 3.9 6 1021.9 1019.9 1024.2 985.0 983.1 987.2 0.0 8
94346 Лонгрич 20.08.2019 +14.9 +7.6 +22.9 25 13 +5 +21 +21 6.1 10 1025.0 1022.9 1027.2 1002.2 1000.1 1004.3 0.0 16
94363 Эмералд 20.08.2019 +15.7 +11.0 +22.2 23 13 +9 +20 +20 6.6 11 1023.7 1021.9 1025.7 1001.2 999.5 1003.2 0.0 16
94365 Прозерпин 20.08.2019 +16.3 +9.3 +24.7 63 28 +8 +24 +25 4.6 8 1020.8 1017.7 1022.8 1018.4 1015.3 1020.4 4.0 4.0 0.0 8
94367 Маккай 20.08.2019 +17.9 +14.1 +21.1 60 40 +13 +22 +22 5.4 7 1021.2 1018.5 1023.3 1017.6 1014.9 1019.7 1.0 1.0 0.0 16
94368 Гамильтон Айленд 20.08.2019 +19.1 +18.5 +20.5 66 46 +18 +21 +21 9.5 14 1020.7 1017.5 1022.5 1013.7 1010.6 1015.5 6.0 6.0 0.0 8
94370 Сэмюэл Хилл 20.08.2019 +14.6 +8.3 +21.5 60 24 +8 +21 +21 3.0 6 7000 м 1022.3 1020.0 1023.7 1018.5 1016.2 1019.9 5.0 5.0 0.0 8
94371 Крил Риф 20.08.2019 +20.5 0.0 +19.3 +22.1 +17 +19 +19 9.8 12 1019.9 1017.0 1021.9 1019.2 1016.3 1021.2 8
94372 Остров Мидл 20.08.2019 +17.5 +16.4 +19.4 68 43 +15 +19 +19 8.0 11 1021.5 1019.0 1023.3 997.0 994.6 998.8 0.0 8
94373 Йеппун 20.08.2019 +16.2 +12.2 +20.8 57 23 +11 +21 +21 4.3 7 1022.7 1020.5 1024.1 1022.0 1019.8 1023.4 0.0 8
94374 Рокхемптон 20.08.2019 +17.8 +11.6 +24.3 31 11 +11 +22 +22 3.3 7 1022.6 1020.7 1024.6 1020.8 1018.9 1022.8 0.0 16
94376 Тангул 20.08.2019 +13.5 +5.6 +23.2 21 7 +5 +20 +20 3.3 7 1023.9 1021.6 1025.7 1000.8 998.5 1002.5 0.0 8
94379 Суэн Рис 20.08.2019 +20.5 0.0 +19.2 +21.3 0.0 0 1020.2 1018.1 1022.2 1019.2 1017.1 1021.2 8
94380 Гладстон 20.08.2019 +17.3 +13.4 +23.8 42 23 +13 +23 +23 4.6 7 1022.6 1020.9 1024.0 1013.7 1012.0 1015.1 0.0 8
94381 Гладстон аэропорт 20.08.2019 +17.1 +12.9 +23.7 41 21 +12 +22 +22 3.8 6 1022.8 1021.1 1024.5 1020.8 1019.1 1022.5 0.0 8
94387 Бандаберг 20.08.2019 +14.8 +8.9 +23.5 49 25 +8 +22 +22 3.9 7 1022.7 1021.0 1023.9 1018.9 1017.2 1020.1 0.0 8
94388 Остров Леди Эллиот 20.08.2019 +18.3 +16.0 +20.3 56 42 +14 +22 +22 7.9 12 1022.1 1020.5 1023.5 1021.6 1020.0 1023.0 0.0 16
94393 Фредерик Риф 20.08.2019 +21.3 -0.6 +21.3 +22.2 +19 +19 +19 10.9 12 1018.9 1017.8 1019.9 1017.4 1016.3 1018.4 8
94394 Остров Като 20.08.2019 +20.3 0.0 +18.7 +21.3 0.0 0 1019.5 1017.9 1022.0 1018.7 1017.1 1021.2 16
94395 Клермон 20.08.2019 +14.5 +4.0 +21.4 25 12 +4 +20 +20 3.9 7 1023.5 1021.9 1025.3 991.6 990.0 993.3 0.0 16
94396 Роллстон 20.08.2019 +13.6 +8.0 +21.7 24 10 +6 +20 +20 5.0 9 1024.8 1022.7 1026.8 998.7 996.6 1000.6 0.0 8
94399 Лочингтон 20.08.2019 +13.9 +5.9 +23.4 26 12 +7 +20 +20 1.4 3 1023.9 1022.0 1025.7 992.4 990.5 994.1 0.0 8
94403 Джеральдтон 20.08.2019 +14.4 +5.6 +25.6 46 18 +4 +23 +23 5.1 10 1029.7 1026.4 1032.0 1026.0 1022.7 1028.3 0.0 16
94417 Морава 20.08.2019 +12.9 +3.3 +24.2 44 13 +3 +22 +22 3.5 8 1031.6 1028.2 1034.1 998.9 995.7 1001.4 0.0 16
94429 Маунт Магнет аэропорт 20.08.2019 +14.2 +5.2 +23.1 31 11 +4 +20 +20 5.1 9 1031.4 1028.0 1034.1 983.0 979.7 985.6 0.0 16
94430 Микатарра 20.08.2019 +15.0 +8.1 +23.0 26 12 +5 +20 +20 6.3 9 1029.8 1026.7 1032.2 969.0 966.1 971.3 0.0 16
94449 Лавертон 20.08.2019 +12.3 +4.0 +20.2 41 20 +2 +19 +19 4.4 7 1033.8 1031.1 1036.7 978.7 976.1 981.4 0.0 16
94450 Леонора аэропорт 20.08.2019 +12.4 +3.5 +20.8 40 20 +1 +20 +20 3.9 6 1033.3 1030.4 1036.3 989.1 986.3 992.0 0.0 16
94457 Уорбертон 20.08.2019 +13.2 +6.5 +20.7 42 22 +3 +19 +19 5.6 8 1031.7 1029.5 1034.8 977.5 975.4 980.4 0.0 8
94461 Джайлс 20.08.2019 +12.0 +4.0 +19.4 32 12 0 +18 +18 5.8 8 1029.9 1027.7 1032.6 960.2 958.1 962.7 0.0 16
94462 Юлара 20.08.2019 +11.7 +3.6 +19.9 39 20 +1 +18 +18 5.4 9 1031.0 1028.4 1033.9 972.9 970.5 975.7 0.0 16
94474 Эрнабелла 20.08.2019 +10.7 +5.8 +16.6 44 30 +2 +14 +14 5.8 7 1032.0 1030.2 1034.0 950.0 948.3 951.8 0.0 8
94476 Однадатта 20.08.2019 +11.3 +2.8 +18.3 41 28 +1 +18 +18 3.9 8 1033.5 1031.3 1036.4 1019.3 1017.2 1022.2 0.0 16
94510 Чарвилл 20.08.2019 +10.8 +3.8 +19.1 29 14 +1 +17 +17 4.4 8 1028.0 1026.1 1030.4 991.8 990.0 994.1 0.0 16
94515 Рома 20.08.2019 +10.2 +0.8 +19.2 31 14 -2 +18 +18 4.8 8 1027.0 1025.0 1029.5 990.3 988.4 992.7 0.0 16
94517 Сейнт Джордж аэропорт 20.08.2019 +10.1 +0.2 +19.0 37 22 -2 +17 +17 3.8 7 1027.4 1025.8 1029.8 1003.5 1001.9 1005.8 0.0 8
94541 Инверелл 20.08.2019 +8.9 +1.8 +17.7 40 21 -2 +16 +16 2.8 4 50 км 1025.2 1023.9 1026.7 946.9 945.7 948.3 0.0 0.0 0.0 8
94542 Долби 20.08.2019 +10.5 +2.5 +20.8 28 9 0 +19 +19 4.4 6 1024.7 1022.8 1026.4 983.8 982.0 985.4 0.0 8
94549 Кингарой 20.08.2019 +11.1 -1.0 +3.3 +20.0 27 9 +1 +19 +19 5.0 8 1023.9 1022.2 1025.7 972.6 971.0 974.3 0.0 6
94552 Оки 20.08.2019 +10.0 -1.3 +21.0 32 10 -4 +19 +19 4.2 8 1024.4 1022.6 1026.2 976.1 974.3 977.8 0.0 16
94553 Аплторп 20.08.2019 +8.6 -3.3 +17.3 34 10 -5 +16 +16 3.1 5 1023.6 1022.8 1025.1 922.5 921.7 923.8 0.0 8
94555 Уорвик 20.08.2019 +10.1 -3.6 +20.3 32 12 -1 +20 +20 2.3 4 1023.6 1021.7 1025.6 967.3 965.5 969.2 0.0 8
94562 Университет Квинсленда 20.08.2019 +14.3 +7.5 +24.0 26 7 4.6 6 0.0 8
94566 Джимпи 20.08.2019 +13.2 +4.3 +22.8 49 27 +3 +21 +21 1.1 2 1023.1 1021.1 1025.0 1015.3 1013.3 1017.2 0.0 8
94567 Мэриборо 20.08.2019 +14.3 +7.0 +22.2 51 30 +6 +22 +22 4.0 6 1022.9 1021.2 1024.5 1021.7 1020.1 1023.3 4.0 4.0 0.0 8
94568 Амберли 20.08.2019 +10.7 +0.1 +23.3 41 8 0 +20 +20 2.0 3 1022.7 1020.8 1025.6 1019.7 1017.8 1022.6 0.0 8
94569 Саншайн-Кост 20.08.2019 +13.1 +7.4 +19.3 50 25 +5 +18 +18 4.3 6 1022.7 1020.9 1024.6 1022.3 1020.5 1024.2 0.0 8
94570 Тевантин 20.08.2019 +13.5 +9.2 +19.3 60 33 +9 +18 +18 2.1 4 1023.0 1021.3 1024.8 1022.1 1020.4 1023.9 0.0 8
94572 Лисмор 20.08.2019 +10.3 -0.9 +21.2 51 15 -1 +20 +20 2.6 4 1022.7 1020.5 1025.9 1021.6 1019.4 1024.8 0.0 16
94573 Казино 20.08.2019 +10.4 +0.1 +21.0 46 14 -3 +20 +20 2.1 3 1022.8 1020.5 1026.1 1020.2 1017.9 1023.5 0.0 16
94575 Арчерфилд 20.08.2019 +13.9 +8.1 +22.4 38 9 +7 +20 +20 3.1 4 1022.8 1021.1 1025.5 1021.2 1019.5 1023.9 1.0 1.0 0.0 8
94576 Брисбен 20.08.2019 +15.0 +8.3 +23.2 35 10 +8 +20 +20 1.5 3 1022.8 1021.2 1025.5 1021.8 1020.2 1024.5 0.0 8
94578 Брисбен 20.08.2019 +14.0 +7.9 +20.6 40 17 +5 +20 +29 4.7 8 30 км 1022.8 1021.3 1025.4 1021.7 1020.3 1024.3 0.3 0.3 0.0 16
94580 Голд-Кост 20.08.2019 +14.7 +11.2 +20.1 48 30 +9 +19 +19 4.4 6 1022.4 1021.2 1024.7 1021.9 1020.7 1024.2 0.0 8
94584 Дабл Айленд Пойнт 20.08.2019 +15.5 +13.9 +18.5 50 30 +11 +16 +16 8.2 13 1022.0 1020.0 1023.5 1010.7 1008.7 1012.1 0.0 16
94588 Глен Иннес 20.08.2019 +6.1 -9.2 +16.9 41 15 -12 +15 +15 4.1 8 1024.4 1023.4 1025.5 903.6 902.8 904.6 0.0 16
94589 Ямба 20.08.2019 +13.0 +7.8 +19.2 43 30 +7 +18 +18 2.9 4 1022.4 1020.1 1025.4 1019.0 1016.8 1022.0 0.0 16
94592 Кулангатта аэропорт 20.08.2019 +13.5 +8.6 +20.3 43 18 +6 +19 +19 4.1 7 1022.4 1020.9 1024.8 1021.8 1020.3 1024.2 0.0 8
94594 Мыс Мортон 20.08.2019 +15.3 +12.3 +18.1 46 41 +10 +16 +16 5.4 8 1022.5 1020.6 1024.3 1010.5 1008.6 1012.3 8
94596 Баллина 20.08.2019 +12.2 +5.9 +19.8 52 22 +4 +20 +20 3.3 5 1022.6 1020.5 1025.6 1022.3 1020.2 1025.3 0.0 16
94598 Эванс Хед 20.08.2019 +12.4 +8.1 +18.7 40 27 +5 +17 +17 4.3 6 1022.2 1019.9 1025.3 1014.7 1012.4 1017.7 0.0 16
94599 Мыс Байрон 20.08.2019 +13.9 +10.3 +17.8 42 31 +7 +17 +17 6.1 11 1022.7 1020.8 1025.4 1011.0 1009.1 1013.7 0.0 16
94600 Мыс Натуралиста 20.08.2019 +12.9 +9.0 +18.3 76 57 +6 +17 +17 3.8 5 1033.1 1030.4 1035.3 1019.8 1017.1 1022.0 0.0 16
94601 Мыс Лиувин 20.08.2019 +15.1 +11.8 +19.4 68 50 +9 +20 +20 4.3 6 1033.1 1030.4 1035.5 1031.4 1028.7 1033.8 0.0 16
94602 Остров Роттнест 20.08.2019 +15.3 +11.8 +20.4 63 47 +10 +20 +20 4.6 6 1032.6 1029.7 1034.8 1027.4 1024.5 1029.6 0.0 16
94603 Баджингарра 20.08.2019 +14.0 +6.9 +22.5 47 21 5.4 7 0.0 16
94604 Банбери 20.08.2019 +10.8 +3.4 +19.7 77 44 +2 +20 +20 1.3 3 1033.6 1030.7 1036.0 1032.8 1029.9 1035.2 0.0 16
94605 Мандура 20.08.2019 +13.8 +8.1 +18.7 67 51 +8 +19 +19 2.1 3 1033.1 1030.2 1035.5 1032.7 1029.8 1035.1 0.0 16
94608 Перт Монт-Лоули 20.08.2019 +12.8 +4.7 +22.9 68 31 +4 +23 +23 1.1 4 1032.9 1030.0 1035.2 1029.8 1026.9 1032.1 0.0 16
94609 Перт Джандакот 20.08.2019 +12.7 +3.6 +23.0 72 30 +1 +23 +23 2.6 6 1033.0 1030.1 1035.5 1029.2 1026.3 1031.7 0.0 16
94610 Перт 20.08.2019 +13.6 +4.4 +23.3 60 27 +2 +23 +31 3.9 8 30 км 1032.8 1029.9 1035.2 1030.4 1027.5 1032.7 0.0 0.0 0.0 16
94612 Буллсбрук Пирс 20.08.2019 +14.1 +5.2 +22.7 58 36 +4 +23 +23 3.3 5 1032.7 1030.0 1035.2 1027.1 1024.4 1029.5 0.0 8
94614 Суонборн 20.08.2019 +14.1 +7.7 +22.4 70 31 3.3 5 0.0 16
94615 Гусберри Хилл 20.08.2019 +14.4 +8.8 +21.6 54 32 6.3 8 16
94617 Манджимап 20.08.2019 +11.1 +5.4 +19.5 79 44 +2 +20 +20 2.6 4 1033.8 1031.3 1036.0 998.9 996.5 1001.1 0.0 8
94620 Дуэллингап 20.08.2019 +10.1 +1.6 +21.0 72 30 -3 +22 +22 3.1 4 1033.8 1031.0 1036.1 1001.2 998.5 1003.5 0.0 16
94628 Ньюдегейт 20.08.2019 +8.8 +0.2 +19.1 74 38 0 +19 +19 0.9 4 1034.5 1032.3 1036.6 995.6 993.4 997.6 0.0 16
94631 Роки Галли 20.08.2019 +10.8 +6.0 +18.2 78 50 1.5 3 0.0 2 8
94637 Калгурли-Боулдер 20.08.2019 +11.6 +3.8 +19.7 52 26 +3 +19 +19 2.7 5 1034.9 1032.5 1037.4 990.9 988.6 993.3 0.0 16
94638 Эсперанс 20.08.2019 +12.0 +5.6 +20.5 76 43 +4 +20 +20 2.6 4 1035.3 1033.3 1037.2 1032.0 1030.0 1033.9 0.0 16
94641 Катаннинг 20.08.2019 +10.6 +2.4 +18.0 70 44 +2 +18 +18 1.3 4 1034.5 1032.1 1036.7 995.6 993.3 997.7 0.0 1 16
94644 Ред Рокс Пойнт 20.08.2019 +10.6 +3.6 +16.2 78 60 -1 +16 +16 4.6 6 1036.6 1035.1 1039.0 1036.2 1034.7 1038.6 0.0 16
94647 Евкла 20.08.2019 +9.0 +1.2 +16.0 76 53 -2 +15 +18 2.4 4 40 км 1036.6 1035.3 1038.8 1025.1 1023.9 1027.3 2.5 2.5 0.0 16
94651 Наллабор 20.08.2019 +10.1 +3.2 +16.2 81 54 -1 +16 +16 3.4 6 1036.7 1035.7 1039.0 1028.7 1027.7 1031.0 6.5 6.5 0.0 24
94653 Сидуна 20.08.2019 +11.1 +5.8 +15.1 82 60 +3 +14 +14 3.7 7 1035.5 1034.4 1037.5 1033.6 1032.5 1035.6 7.6 7.6 0.0 24
94655 Таркула 20.08.2019 +10.2 +1.0 +18.9 64 33 -2 +19 +19 3.1 5 1035.6 1033.6 1038.1 1020.5 1018.6 1023.0 0.0 16
94659 Аэродром Вумера 20.08.2019 +11.2 +4.9 +17.0 64 40 +2 +16 +16 4.3 7 1034.0 1032.6 1036.4 1013.5 1012.1 1015.9 0.0 16
94662 Клив аэропорт 20.08.2019 +10.7 +7.3 +15.4 84 56 +4 +13 +13 6.0 9 1032.7 1031.8 1034.4 1011.3 1010.4 1013.0 0.0 8
94672 Аделаида 20.08.2019 +12.5 +10.3 +14.2 84 77 +7 +12 +12 5.7 7 5000 м 1031.2 1030.3 1032.5 1030.2 1029.3 1031.5 8.1 8.1 0.0 5 1 24
94674 Ли-Крик 20.08.2019 +9.2 +1.0 +16.8 56 38 +1 +14 +14 3.3 7 1033.0 1031.5 1035.7 1001.7 1000.2 1004.3 0.0 16
94675 Аделаида 20.08.2019 +12.0 +9.3 +14.4 84 70 +8 +13 +13 2.6 4 1031.6 1030.9 1032.9 1025.4 1024.7 1026.6 0.0 8
94677 Хиндмарш Айленд 20.08.2019 +12.3 +9.3 +15.0 74 63 +6 +13 +13 7.0 10 1029.3 1028.4 1030.5 1027.9 1027.0 1029.1 0.0 8
94678 Маунт Крофорд 20.08.2019 +7.5 +6.0 +9.0 100 99 0 +4 +4 9.6 12 1029.5 1028.3 1030.9 966.7 965.6 968.0 0.0 2 4 16
94681 Нереутпа 20.08.2019 +9.4 +6.5 +12.4 96 86 +2 +9 +9 7.4 10 10 км 1031.0 1030.1 1032.1 997.4 996.6 998.5 9.0 9.0 0.0 2 3 16
94682 Локстон 20.08.2019 +11.0 +5.2 +17.2 70 44 +2 +16 +16 4.7 7 30 км 1030.3 1028.7 1031.7 1026.6 1025.0 1028.0 0.0 16
94683 Кутпо 20.08.2019 +9.3 +7.0 +11.6 97 83 +3 +8 +8 6.6 9 1028.7 1027.8 1029.9 984.7 983.9 985.9 0.0 8 16
94684 Юнта 20.08.2019 +9.7 +3.7 +16.3 65 38 +1 +15 +15 3.6 7 1031.6 1030.1 1033.9 995.2 993.8 997.4 0.0 16
94685 Кадина 20.08.2019 +11.5 +6.2 +15.0 84 70 +3 +13 +13 5.4 7 1032.4 1031.5 1034.1 1027.3 1026.4 1029.0 0.0 8
94686 Фоулерс Гэп 20.08.2019 +10.4 +2.7 +17.8 49 34 +2 +16 +16 3.6 7 1031.5 1029.9 1034.1 1009.4 1007.9 1012.0 0.0 16
94690 Ламеру 20.08.2019 +9.6 +3.6 +14.9 87 75 -1 +11 +11 6.9 11 1028.9 1027.8 1030.1 1015.3 1014.2 1016.5 0.0 1 16
94691 Брокен-Хилл аэропорт 20.08.2019 +9.7 +3.0 +16.6 56 33 0 +16 +16 4.4 7 1031.3 1029.5 1033.8 997.3 995.5 999.7 1.0 1.0 0.0 24
94693 Милдьюра 20.08.2019 +10.5 +3.3 +16.3 69 46 -1 +15 +16 4.5 7 30 км 1029.9 1028.1 1031.9 1023.6 1021.8 1025.6 7.6 5.6 0.0 24
94702 Хей 20.08.2019 +10.8 +3.3 +15.8 68 46 -1 +14 +14 6.0 9 1027.9 1026.0 1029.8 1016.6 1014.7 1018.5 0.0 8
94703 Бурк 20.08.2019 +10.8 -0.2 +17.9 38 26 -3 +18 +18 3.6 5 1029.5 1027.6 1031.9 1016.4 1014.5 1018.8 0.0 16
94710 Кобар аэропорт 20.08.2019 +7.6 -1.6 +16.4 51 33 -3 +16 +16 2.6 6 1029.5 1027.8 1031.8 1003.1 1001.4 1005.3 0.0 16
94711 Кобар 20.08.2019 +9.2 +0.2 +15.6 48 31 -3 +15 +15 3.8 6 1029.3 1027.7 1031.3 997.5 996.0 999.5 0.0 8
94712 Янг 20.08.2019 +6.0 -0.7 +10.3 83 64 -2 +7 +7 2.6 6 1026.8 1024.4 1028.4 980.7 978.5 982.3 0.0 8
94715 Форбс аэропорт 20.08.2019 +7.3 +1.9 +14.0 66 50 0 +12 +12 2.9 7 1027.6 1025.8 1029.1 999.5 997.8 1001.0 0.0 8
94727 Маджи 20.08.2019 +8.6 +2.5 +14.8 58 38 0 +13 +13 4.5 8 1026.2 1024.7 1027.7 969.7 968.3 971.2 0.0 8
94729 Батерст аэропорт 20.08.2019 +5.4 0.0 +11.0 75 49 -3 +7 +7 4.6 9 1026.2 1024.9 1027.4 938.3 937.1 939.4 0.0 16
94743 Гора Бойс 20.08.2019 +3.7 -0.2 +9.7 69 41 8.3 13 0.0 8
94746 Мосс Вейл 20.08.2019 +6.7 +3.3 +10.4 65 49 -3 +6 +6 11.4 16 1020.9 1017.5 1023.1 941.0 937.9 943.0 0.0 8
94749 Белламби 20.08.2019 +13.1 +9.3 +18.6 41 26 7.3 10 0.0 16
94750 Нора Хилл 20.08.2019 +12.1 +8.5 +16.7 47 33 +4 +15 +15 9.5 15 1019.6 1016.5 1021.8 1007.0 1003.9 1009.1 0.0 16
94752 Бадгери-Крик 20.08.2019 +12.3 +5.6 +20.0 44 24 +4 +19 +19 4.5 10 1021.7 1019.4 1023.9 1011.8 1009.5 1013.9 0.0 16
94754 Налло Маунтин 20.08.2019 +3.3 -1.2 +10.2 70 38 4.6 7 0.0 16
94755 Камден 20.08.2019 +12.7 +7.6 +18.8 42 25 +5 +18 +18 5.5 9 1021.7 1019.4 1023.9 1012.7 1010.4 1014.8 0.0 16
94757 Кэмпбеллтаун 20.08.2019 +12.4 +4.7 +19.3 45 24 3.8 6 0.0 16
94759 Террей Хилс 20.08.2019 +11.0 +4.5 +19.6 47 26 3.8 5 0.0 16
94760 Хорсли-Парк 20.08.2019 +11.0 +2.4 +19.9 46 21 2.5 5 0.0 16
94763 Пенрит 20.08.2019 +11.5 +2.2 +22.1 54 23 2.5 5 0.0 16
94765 Банкстаун 20.08.2019 +13.0 +5.7 +20.7 43 22 +2 +20 +20 5.2 8 1021.6 1019.1 1024.0 1020.7 1018.2 1023.1 0.0 16
94766 Кентербери 20.08.2019 +12.9 +6.9 +20.1 40 22 4.8 8 0.0 16
94767 Сидней аэропорт 20.08.2019 +13.7 +8.6 +21.1 40 21 +5 +21 +21 7.6 12 30 км 1021.3 1018.5 1023.8 1020.7 1017.9 1023.2 0.3 0.0 0.0 24
94768 Сидней 20.08.2019 +13.4 +8.1 +21.0 39 21 0.0 0 1021.4 1018.6 1023.7 1016.5 1013.8 1018.8 0.0 16
94774 Ньюкасл 20.08.2019 +13.6 +7.4 +20.3 41 25 7.5 10 0.0 16
94776 Уильямтаун 20.08.2019 +13.2 +6.7 +20.4 38 22 +2 +20 +20 8.0 10 1021.7 1018.2 1024.1 1020.7 1017.2 1023.1 0.0 24
94785 Кемпси 20.08.2019 +8.8 -2.5 +21.8 52 13 -7 +21 +21 2.4 5 1021.9 1018.8 1024.5 1020.2 1017.1 1022.8 0.0 16
94786 Порт Маккуори аэропорт 20.08.2019 +11.1 +2.9 +18.6 47 23 +2 +19 +23 2.8 5 300 м 1021.9 1019.5 1024.4 1021.3 1018.9 1023.8 5.7 5.7 0.0 16
94802 Олбани 20.08.2019 +11.7 -0.1 +6.7 +18.6 81 50 +5 +19 +24 2.3 4 1033.8 1031.3 1036.1 1025.2 1022.7 1027.5 1.0 1.0 0.0 2 8
94804 Остров Нептун 20.08.2019 +13.7 +12.0 +14.7 +9 +12 +12 12.0 14 1030.2 1029.6 1031.2 1026.3 1025.7 1027.3 0.0 24
94807 Парндана 20.08.2019 +10.6 +6.5 +14.0 85 72 6.0 9 0.0 1 2 20
94808 Ноарлунга 20.08.2019 +12.1 +10.0 +14.0 80 71 4.0 6 0.0 1 16
94809 Эдитбург 20.08.2019 +10.9 +7.0 +14.8 97 86 +4 +13 +13 4.9 8 1030.8 1029.9 1031.9 1029.9 1029.0 1031.0 0.0 2 16
94811 Парава 20.08.2019 +9.6 +7.6 +11.4 91 83 +4 +8 +8 5.6 9 1029.7 1028.8 1030.8 988.4 987.5 989.5 0.0 2 16
94813 Кейп Джаффа 20.08.2019 +12.6 +11.1 +14.5 79 72 +8 +12 +12 9.0 11 1026.6 1025.5 1028.0 1024.4 1023.3 1025.8 0.0 2 16
94814 Стратолбин 20.08.2019 +12.0 +8.9 +15.0 76 64 +7 +13 +13 6.0 8 1029.6 1028.7 1030.7 1022.4 1021.5 1023.5 0.0 8
94817 Кунаварра 20.08.2019 +10.9 +6.3 +14.3 84 72 +3 +12 +12 6.1 9 1025.8 1024.3 1027.4 1018.7 1017.3 1020.3 0.0 1 3 16
94820 Наракоорт аэропорт 20.08.2019 +10.7 +6.6 +14.1 87 76 +3 +11 +11 6.8 10 1026.3 1025.0 1027.9 1020.1 1018.8 1021.7 0.0 1 1 16
94821 Маунт-Гамбьер 20.08.2019 +11.3 +9.1 +13.1 85 78 +5 +10 +10 8.3 11 5000 м 1024.9 1023.1 1026.6 1016.4 1014.7 1018.1 8.6 8.6 0.0 3 2 16
94822 Маяк Кэйп-Уиллоуби 20.08.2019 +11.8 +8.9 +15.2 79 68 +5 +13 +13 6.7 9 1029.4 1028.4 1030.8 1022.6 1021.6 1023.9 0.0 16
94826 Маяк Кэйп-Нельсон 20.08.2019 +12.0 +10.9 +12.9 87 81 +7 +9 +9 11.6 14 1022.1 1020.4 1024.2 1016.4 1014.7 1018.5 0.0 6 16
94827 Нхилл 20.08.2019 +10.0 +5.7 +14.0 86 68 +2 +11 +11 7.6 11 1026.8 1025.3 1028.5 1009.7 1008.3 1011.4 0.0 1 16
94828 Портленд 20.08.2019 +11.4 +9.5 +12.9 84 76 +5 +9 +9 11.0 14 4500 м 1022.6 1021.0 1024.7 1012.7 1011.1 1014.7 9.3 9.3 0.0 4 5 16
94829 Гамильтон 20.08.2019 +9.5 +0.1 +7.1 +11.8 89 71 +3 +8 +8 7.7 10 3000 м 1024.3 1022.5 1026.3 995.0 993.2 996.9 10.0 10.0 0.0 15
94830 Порт Фейри 20.08.2019 +10.9 +8.8 +12.9 98 89 +5 +9 +9 7.3 10 1022.0 1020.0 1024.2 1020.8 1018.8 1023.0 0.0 2 7 16
94833 Гора Уильям 20.08.2019 +3.0 +1.1 +4.9 100 100 10.9 15 0.0 3 8 16
94835 Пиренис 20.08.2019 +5.1 +2.7 +8.0 95 88 5.8 8 0.0 16
94836 Стауэлл 20.08.2019 +10.6 +8.5 +13.0 73 67 +6 +11 +11 4.3 7 1024.5 1022.7 1026.3 995.9 994.1 997.6 0.0 8
94837 Уорнамбул 20.08.2019 +10.5 +8.0 +13.5 94 84 +3 +10 +10 8.6 12 8000 м 1022.3 1020.3 1024.6 1013.6 1011.6 1015.9 9.7 9.7 0.0 1 7 16
94838 Хоптаун 20.08.2019 +9.4 +1.7 +15.5 86 64 -2 +14 +14 5.4 8 1027.6 1025.9 1029.2 1018.1 1016.4 1019.6 0.0 16
94839 Чарльтон 20.08.2019 +9.2 +4.0 +14.2 91 71 0 +12 +12 4.6 7 1026.1 1024.0 1027.8 1009.9 1007.9 1011.6 0.0 1 16
94840 Мортлейк 20.08.2019 +10.1 +7.1 +14.1 94 74 +3 +11 +11 7.6 10 1022.7 1020.4 1024.7 1006.7 1004.5 1008.7 0.0 2 3 16
94842 Маяк Кэйп-Отуэй 20.08.2019 +11.4 +7.3 +12.5 89 75 +6 +8 +8 12.3 14 1018.8 1016.4 1021.0 1008.8 1006.4 1010.9 0.0 4 7 16
94843 Суон-Хилл 20.08.2019 +9.6 +2.2 +15.8 79 52 -3 +14 +14 6.6 10 1027.4 1025.5 1028.9 1018.7 1016.8 1020.2 9.1 9.1 0.0 2 16
94846 Эйрис Инлет 20.08.2019 +10.1 +8.2 +11.9 90 78 6.5 11 0.0 2 5 16
94850 Остров Кинг аэропорт 20.08.2019 +11.7 +10.7 +12.7 89 79 +6 +9 +9 12.3 14 4500 м 1016.4 1013.5 1019.1 1012.0 1009.2 1014.7 9.8 9.8 0.0 5 1 6 24
94852 Балларат 20.08.2019 +8.5 +6.0 +11.5 91 76 +1 +8 +8 7.8 10 1023.7 1021.5 1025.5 971.3 969.2 973.0 9.6 9.6 0.0 16
94854 Авалон 20.08.2019 +11.5 +8.9 +14.5 80 68 +4 +12 +12 10.6 15 1021.4 1019.0 1023.9 1020.1 1017.7 1022.6 7.8 7.8 0.0 16
94855 Бендиго 20.08.2019 +8.4 +1.5 +13.2 85 66 -2 +11 +11 4.2 8 9000 м 1024.6 1022.3 1026.3 999.1 996.8 1000.7 8.7 8.7 0.0 1 2 16
94857 Брейкуотер 20.08.2019 +11.3 +8.7 +13.8 88 76 +4 +12 +12 6.9 10 1021.1 1018.1 1023.5 1019.5 1016.5 1021.9 0.0 1 16
94859 Редесдейл 20.08.2019 +8.7 +4.4 +13.4 84 65 2.6 5 0.0 16
94860 Уоллан 20.08.2019 +7.6 +4.7 +9.9 84 74 -1 +7 +7 5.8 8 400 м 1023.4 1020.9 1025.1 960.3 957.9 961.9 9.0 9.0 0.0 1 16
94862 Ярравонга 20.08.2019 +7.2 +2.1 +3.2 +10.7 96 77 -1 +8 +8 1.8 6 1025.8 1022.3 1028.0 1010.0 1006.6 1012.2 0.0 1 2 8
94863 Шиокс 20.08.2019 +10.0 +7.7 +12.8 78 69 +3 +10 +10 8.2 10 1021.8 1019.4 1023.8 993.1 990.8 995.0 0.0 16
94864 Мельбурн Эссендон 20.08.2019 +10.6 +8.4 +13.4 75 61 +6 +11 +11 4.1 6 1022.7 1019.8 1025.1 1012.5 1009.6 1014.8 0.0 16
94865 Лавертон 20.08.2019 +11.9 +8.0 +15.6 72 57 +4 +14 +14 6.9 10 1022.1 1019.5 1024.6 1019.6 1017.0 1022.1 9.3 8.1 0.0 24
94866 Мельбурн 20.08.2019 +11.5 +6.1 +15.7 66 53 +4 +14 +14 6.6 9 35 км 1022.7 1019.9 1025.0 1009.3 1006.0 1018.8 7.6 7.1 0.0 24
94870 Мурабин 20.08.2019 +11.9 +9.6 +14.6 71 62 +7 +13 +13 6.4 9 1021.8 1018.3 1024.2 1020.2 1016.8 1022.6 8.6 8.6 0.0 16
94872 Ферни Крик 20.08.2019 +6.8 +4.2 +9.4 90 77 +3 +8 +8 1.8 3 1022.1 1019.2 1024.1 960.8 958.1 962.7 0.0 2 2 16
94874 Мангалор 20.08.2019 +8.0 +2.4 +12.2 89 75 +1 +10 +10 3.2 6 1024.6 1021.6 1026.6 1007.3 1004.4 1009.3 9.5 9.5 0.0 16
94875 Шеппартон 20.08.2019 +8.2 +3.5 +12.6 90 74 -1 +10 +10 4.8 8 1025.3 1022.5 1027.3 1011.3 1008.5 1013.3 9.4 9.4 0.0 24
94878 Хантерс Хилл 20.08.2019 +2.3 +1.0 +4.9 100 100 3.8 6 0.0 2 2 16
94881 Эйлдон 20.08.2019 +5.6 +3.7 +8.1 90 85 5.3 11 0.0 2 16
94886 Паунд-Крик 20.08.2019 +11.0 +8.9 +13.6 83 75 +5 +11 +11 6.6 9 1018.8 1015.2 1021.4 1018.4 1014.8 1021.0 0.0 1 4 16
94889 Вангаратта 20.08.2019 +8.7 +5.2 +11.1 86 72 +2 +9 +9 4.2 6 1025.3 1021.8 1027.4 1006.6 1003.1 1008.6 10.0 10.0 0.0 2 16
94891 Латроб-Вэлли 20.08.2019 +10.7 +8.9 +12.6 76 68 +4 +9 +9 11.3 13 1018.8 1015.6 1021.4 1011.9 1008.7 1014.5 9.8 9.8 0.0 1 2 16
94892 Рилл 20.08.2019 +11.2 +9.2 +13.3 79 70 +7 +11 +11 4.0 5 1020.0 1016.6 1022.6 1018.3 1014.9 1020.9 0.0 4 16
94893 Маяк Уилсонс Промонтори 20.08.2019 +11.0 0.0 +5.8 +12.2 87 81 +4 +6 +6 18.9 23 1013.4 1009.2 1016.1 1001.7 997.5 1004.3 0.0 7 8
94894 Маунт Буллер 20.08.2019 -1.3 -3.0 +0.2 99 99 3.8 13 0.0 1 4 16
94898 Цербер 20.08.2019 +11.2 +8.8 +13.2 78 70 +5 +11 +11 6.9 8 1020.3 1017.1 1022.8 1018.6 1015.4 1021.1 0.0 1 3 16
94903 Фолс-Крик 20.08.2019 -2.0 -3.6 -0.1 98 96 -12 -1 -1 2.4 9 1021.3 1018.2 1023.2 822.5 820.1 824.1 0.0 2 6 16
94905 Маунт Хотэм аэропорт 20.08.2019 +2.6 -1.1 +6.1 80 70 -7 0 0 6.4 11 1020.6 1018.1 1022.6 872.4 870.3 874.2 0.0 8
94906 Маунт Хотэм 20.08.2019 -2.4 -4.1 -0.5 99 98 9.5 15 0.0 16
94907 Сейл Восток 20.08.2019 +12.3 +9.5 +14.6 67 61 0.0 0 0.0 24
94908 Омео 20.08.2019 +5.6 +0.9 +11.5 81 58 -4 +9 +9 5.4 7 1021.4 1018.3 1023.8 939.8 937.0 942.0 0.0 16
94910 Уогга-Уогга 20.08.2019 +5.9 -0.2 +10.6 90 72 -3 +9 +9 2.7 6 1026.6 1023.3 1028.7 1000.6 997.4 1002.7 9.7 9.7 0.0 24
94911 Янки 20.08.2019 +10.5 +8.5 +13.4 100 100 +3 +9 +9 11.4 14 1017.3 1013.4 1019.9 1015.6 1011.7 1018.2 0.0 3 6 16
94912 Бэрнсдейл 20.08.2019 +12.3 +6.3 +16.8 55 44 +4 +15 +15 7.3 11 1018.3 1014.5 1020.9 1012.2 1008.5 1014.8 7.4 7.4 0.0 16
94913 Гелантипи 20.08.2019 +7.7 +4.5 +11.7 61 52 0 +9 +9 6.7 10 1018.5 1015.6 1020.4 929.9 927.2 931.6 0.0 16
94914 Комбиенбар 20.08.2019 +9.3 +6.1 +13.9 54 45 +3 +14 +14 3.4 5 1017.1 1013.6 1019.0 942.0 938.7 943.7 0.0 16
94915 Долина Перишер 20.08.2019 -1.9 -3.3 0.0 90 76 6.3 10 0.0 2 6 16
94919 Ханкобан 20.08.2019 +6.8 +5.0 +8.4 91 75 +3 +8 +8 1.5 5 1025.4 1021.8 1026.8 984.2 980.8 985.6 0.0 2 3 16
94921 Аэропорт Сноуи Маунтинс 20.08.2019 +6.1 +2.2 +11.6 58 38 -2 +9 +9 5.8 10 1020.1 1017.0 1021.7 911.5 908.7 912.9 0.0 16
94925 Таггеранонг 20.08.2019 +8.4 +4.1 +13.6 58 39 +1 +12 +12 4.8 7 1022.2 1019.4 1023.4 952.3 949.8 953.5 0.0 16
94926 Канберра 20.08.2019 +7.5 +3.4 +12.1 64 45 -2 +9 +9 8.2 11 1022.8 1020.1 1024.1 954.0 951.4 955.2 7.5 7.5 0.0 24
94927 Брейдвуд 20.08.2019 +6.2 +0.7 +12.0 64 39 -3 +9 +9 5.8 13 1020.7 1018.2 1022.5 942.0 939.7 943.7 4.5 0.5 0.0 16
94929 Бомбала 20.08.2019 +6.4 +0.8 +12.9 64 47 -5 +10 +10 6.9 12 1018.3 1014.5 1020.6 928.9 925.4 931.0 0.0 16
94930 Маунт Нова 20.08.2019 +10.5 +5.9 +16.9 56 43 4.6 6 0.0 16
94933 Остров Габо 20.08.2019 +13.3 +11.2 +15.2 55 45 +7 +13 +13 10.6 13 1015.8 1011.8 1018.2 1014.0 1010.0 1016.4 0.0 8
94934 Мыс Грин 20.08.2019 +13.4 +9.9 +16.8 59 47 +8 +16 +16 5.9 11 1016.3 1013.6 1018.9 1013.9 1011.2 1016.5 8
94935 Маллакоота 20.08.2019 +13.6 +10.0 +18.3 49 40 +7 +18 +18 5.1 7 1015.9 1011.6 1018.2 1013.2 1008.9 1015.5 0.0 16
94939 Остров Монтегю 20.08.2019 +14.2 +10.5 +18.2 49 39 +8 +19 +19 6.2 13 1017.4 1014.7 1020.0 1010.9 1008.2 1013.5 0.0 16
94951 Дуналли (Страуд-Пойнт) 20.08.2019 +12.2 +8.4 +16.0 62 51 +4 +14 +14 10.9 16 1001.3 997.0 1005.4 999.8 995.5 1003.9 0.0 24
94953 Смиттон 20.08.2019 +11.0 +10.1 +12.0 91 87 +6 +8 +8 11.6 14 1011.6 1008.6 1014.8 1010.5 1007.5 1013.7 0.0 8
94954 Мыс Грим Бапс 20.08.2019 +10.9 +9.2 +11.6 87 79 +3 +6 +6 21.6 25 1011.7 1007.5 1015.2 1000.5 996.4 1004.0 0.0 2 5 24
94955 Шеффилд 20.08.2019 +10.1 +7.9 +13.1 75 68 +4 +10 +10 8.6 13 1007.1 1004.3 1009.5 971.9 969.2 974.2 0.0 2 2 16
94956 Страхан 20.08.2019 +10.8 +9.9 +11.5 90 73 +5 +7 +7 11.0 13 3000 м 1009.0 1005.6 1013.4 1006.3 1002.9 1010.7 10.0 10.0 0.0 4 8 24
94957 Аус 20.08.2019 +10.6 +8.4 +14.0 76 57 +5 +11 +11 6.1 11 1004.0 999.3 1008.4 992.9 988.3 997.3 0.0 2 8 16
94959 Батлерс Гордж 20.08.2019 +6.1 +3.8 +7.9 85 74 5.0 8 0.0 1 8 16
94960 Таннак 20.08.2019 +8.5 +5.0 +13.3 73 58 -1 +10 +10 8.9 15 1003.5 999.4 1007.1 948.9 945.0 952.3 0.0 2 16
94969 Лонсестон 20.08.2019 +11.8 +8.6 +16.1 74 53 5.3 8 0.0 1 1 16
94970 Хобарт 20.08.2019 +12.4 +9.9 +15.0 60 41 +6 +12 +12 9.1 14 1001.2 998.0 1005.2 995.0 991.8 999.0 0.0 8
94975 Хобарт 20.08.2019 +12.5 +10.2 +16.4 55 33 +7 +15 +15 9.7 15 20 км 1002.0 997.8 1005.9 998.7 994.5 1002.6 6.4 4.9 0.0 5 24
94977 Хартц Маунтинс 20.08.2019 +4.2 +2.5 +5.6 93 77 12.9 17 0.0 3 8 16
94980 Флиндерс-Айленд 20.08.2019 +11.8 +10.7 +12.9 89 76 +6 +9 +9 14.4 17 4500 м 1011.1 1006.2 1014.0 1009.9 1005.1 1012.8 9.6 9.6 0.0 1 16
94983 Эддистоун Пойнт 20.08.2019 +11.5 +9.2 +13.6 77 67 +4 +10 +10 11.6 19 1006.4 1001.8 1010.0 1003.9 999.3 1007.5 0.0 1 24
94987 Френдли Бичес 20.08.2019 +12.8 +9.6 +18.3 61 46 +7 +18 +18 5.7 9 1002.7 998.0 1006.6 996.0 991.3 999.9 0.0 1 16
94995 Остров Лорд-Хоу 20.08.2019 +16.2 +12.7 +18.2 66 55 +9 +17 +17 8.6 11 1016.8 1016.0 1018.4 1016.0 1015.2 1017.6 7.8 7.8 0.0 2 1 5 16
94996 Остров Норфолк 20.08.2019 +15.6 +13.4 +18.2 72 56 +12 +18 +18 6.4 11 1012.9 1010.3 1015.2 999.1 996.6 1001.4 8
94998 Остров Маккуори 20.08.2019 +1.0 -1.2 +4.1 89 82 -7 -3 -3 7.0 15 800 м 975.2 965.7 983.6 974.2 964.7 982.6 9.4 8.8 0.0 1 1 16
95101 Трускотт 20.08.2019 +27.6 +0.2 +24.6 +32.9 26 13 +23 +29 +29 4.0 7 1015.4 1013.4 1017.7 1009.5 1007.6 1011.8 5.5 0.0 0.0 8
95111 Порт Китс 20.08.2019 +26.4 +22.7 +31.3 16 13 +22 +27 +27 5.8 8 1016.5 1014.0 1019.1 1013.2 1010.7 1015.7 0.0 16
95121 Милд Пойнт 20.08.2019 +26.7 +20.5 +34.4 37 15 +22 +31 +31 3.9 6 1015.5 1012.5 1017.7 1013.7 1010.7 1015.9 8
95142 Манингрида 20.08.2019 +24.8 +21.1 +30.8 38 27 +22 +29 +29 6.1 8 1015.7 1013.4 1017.3 1012.3 1010.0 1013.9 0.0 8
95146 Галивинку 20.08.2019 +23.7 +20.1 +29.2 56 41 +22 +30 +30 6.1 7 1016.4 1014.5 1018.4 1015.3 1013.5 1017.3 0.0 8
95204 Робак Запад 20.08.2019 +24.5 +17.6 +33.9 0.0 0 0.0 16
95205 Дерби 20.08.2019 +26.3 +19.7 +33.7 13 10 +20 +30 +30 7.0 9 1017.6 1015.3 1020.1 1016.8 1014.5 1019.3 0.0 16
95214 Уиндем 20.08.2019 +26.2 +21.1 +31.2 14 11 +21 +27 +27 6.5 10 1017.9 1015.8 1020.9 1017.4 1015.3 1020.4 0.0 16
95283 Куктаун 20.08.2019 +22.1 +15.3 +27.2 73 54 +15 +30 +32 4.6 8 1017.9 1016.3 1019.7 1017.2 1015.6 1019.0 5.7 5.7 0.0 16
95286 Мариба 20.08.2019 +18.8 +13.6 +27.3 61 35 +13 +26 +26 4.4 6 1018.4 1016.9 1020.7 964.4 963.0 966.6 0.0 8
95292 Юг Джонстон 20.08.2019 +18.8 +12.5 +25.2 76 37 +13 +26 +26 2.6 5 1019.9 1017.9 1022.0 1017.8 1015.8 1019.9 0.0 8
95293 Вулшед 20.08.2019 +17.0 +10.1 +25.1 58 32 +12 +25 +25 2.5 4 1019.8 1017.9 1021.7 956.1 954.3 957.9 0.0 8
95295 Эр 20.08.2019 +18.8 +12.8 +27.5 62 32 3.8 6 0.0 8
95296 Лихау риф 20.08.2019 +19.5 +13.4 +25.3 71 51 +13 +27 +27 5.3 8 1019.9 1017.6 1021.9 1019.0 1016.7 1021.0 0.0 8
95303 Остров Варанас 20.08.2019 +20.9 -0.8 +19.7 +23.4 44 35 +25 +25 +25 4.7 8 1021.0 1019.6 1023.6 1018.1 1016.8 1020.7 0.0 3
95304 Барроу-Айленд 20.08.2019 +20.4 +14.9 +23.1 50 33 +18 +25 +25 8.0 15 1022.1 1019.6 1024.2 1021.3 1018.8 1023.4 0.0 8
95305 Онслоу 20.08.2019 +19.8 +11.7 +27.3 30 13 +11 +25 +25 5.6 9 1023.1 1020.1 1025.4 1021.8 1018.8 1024.1 0.0 16
95307 Каррата 20.08.2019 +21.8 +16.9 +29.0 21 13 +16 +26 +26 8.3 14 1021.7 1018.7 1023.8 1021.0 1018.0 1023.1 0.0 16
95317 Марбл-бар 20.08.2019 +19.8 +13.5 +27.7 18 11 +13 +24 +24 5.8 9 1023.6 1020.6 1026.4 1002.2 999.3 1005.0 0.0 16
95322 Раббит Флат 20.08.2019 +16.4 +0.4 +9.8 +24.5 20 9 +9 +20 +20 6.2 9 1024.8 1021.9 1028.0 985.4 982.6 988.4 0.0 14
95351 Блэколл 20.08.2019 +13.9 +8.4 +21.6 23 10 +6 +20 +20 6.4 10 1025.6 1023.6 1027.3 992.3 990.3 993.9 0.0 8
95367 Маккай 20.08.2019 +16.7 +10.6 +22.7 60 33 +10 +22 +22 6.0 10 1021.4 1018.9 1023.3 1020.8 1018.3 1022.7 5.0 5.0 0.0 8
95369 Сент-Лоренс 20.08.2019 +16.7 +9.7 +24.6 26 10 +9 +21 +21 3.8 7 1022.4 1020.4 1024.0 1021.2 1019.2 1022.8 0.0 8
95370 Уильямсон 20.08.2019 +17.1 +9.1 +24.9 38 9 +8 +22 +22 4.1 8 1022.1 1019.6 1023.7 1018.7 1016.3 1020.3 0.0 8
95402 Шарк-Бэй 20.08.2019 +17.4 +11.5 +26.5 34 12 +9 +23 +23 5.9 9 1026.3 1022.9 1029.0 1022.2 1018.8 1024.9 0.0 16
95448 Леинстер 20.08.2019 +12.0 +3.7 +20.9 41 21 0 +19 +19 4.4 8 1031.5 1028.8 1034.3 972.8 970.3 975.4 0.0 16
95458 Кубер-Педи 20.08.2019 +11.6 +5.4 +17.4 53 33 +1 +17 +17 4.0 6 1034.4 1032.5 1037.2 1007.1 1005.3 1009.9 4.7 4.7 0.0 2 24
95480 Марри 20.08.2019 +10.6 +1.7 +18.7 47 30 -2 +19 +19 4.1 6 1033.6 1031.7 1036.6 1027.4 1025.5 1030.4 0.0 24
95481 Мумба 20.08.2019 +11.1 +3.4 +17.3 36 20 +1 +17 +17 4.0 6 1031.9 1030.2 1034.8 1027.2 1025.5 1030.1 0.0 24
95482 Бердсвилл 20.08.2019 +11.9 +2.3 +20.3 36 21 -1 +18 +18 5.5 9 1030.7 1028.9 1033.4 1025.0 1023.2 1027.7 0.0 16
95485 Тибообера 20.08.2019 +10.5 +3.2 +17.8 38 26 0 +16 +16 3.9 6 1031.5 1029.9 1034.2 1010.1 1008.6 1012.8 0.0 24
95487 Месторождение Ballera 20.08.2019 +11.9 +4.3 +19.3 32 21 +1 +18 +18 5.6 8 1030.5 1029.2 1033.0 1016.7 1015.4 1019.1 0.0 8
95492 Таргоминда 20.08.2019 +12.2 +5.5 +19.4 32 20 +3 +18 +18 4.1 6 1030.1 1028.5 1032.8 1014.3 1012.7 1016.9 0.0 16
95527 Мори 20.08.2019 +10.1 +1.1 +18.6 37 23 -3 +18 +18 6.4 10 1026.6 1024.5 1028.4 1000.3 998.3 1002.1 0.0 24
95529 Майлс 20.08.2019 +10.5 +3.1 +19.5 37 15 +3 +19 +19 3.1 5 1026.4 1024.6 1028.4 990.0 988.3 992.0 0.0 8
95543 Гейнда 20.08.2019 +14.9 +6.0 +23.2 23 9 +6 +20 +20 2.6 4 1023.5 1021.2 1025.7 1010.2 1007.9 1012.3 0.0 8
95551 Тувумба 20.08.2019 +10.0 +3.0 +18.7 32 12 -2 +17 +17 4.9 7 1024.3 1022.8 1025.9 949.7 948.3 951.1 0.0 8
95565 Хервей-Бей 20.08.2019 +13.6 +7.7 +21.0 57 34 +6 +20 +20 4.1 7 1022.7 1021.2 1024.0 1021.1 1019.6 1022.4 0.0 8
95566 Бирберрум 20.08.2019 +12.9 +7.0 +22.5 42 18 1.1 2 0.0 8
95570 Графтон аэропорт 20.08.2019 +11.0 +0.9 +20.6 40 10 0 +21 +21 2.0 4 1022.7 1020.2 1025.7 1019.6 1017.1 1022.6 0.0 16
95571 Графтон 20.08.2019 +12.6 +7.0 +20.6 37 14 2.8 4 0.0 16
95572 Намбор 20.08.2019 +14.0 +8.4 +21.9 47 29 +8 +21 +21 1.9 4 1022.9 1021.1 1024.9 1016.4 1014.6 1018.4 0.0 8
95575 Бодесерт 20.08.2019 +13.1 +5.6 +23.4 36 5 +5 +20 +20 1.8 3 1022.7 1020.8 1025.3 1016.9 1015.0 1019.5 0.0 8
95591 Редклифф 20.08.2019 +14.6 +10.2 +20.4 40 21 +9 +19 +19 4.1 6 1022.9 1021.5 1025.3 1021.3 1019.9 1023.7 0.0 8
95607 Остров Гарден 20.08.2019 +14.0 +8.5 +20.2 73 44 +6 +20 +20 3.9 5 1033.1 1030.3 1035.4 1032.3 1029.5 1034.6 0.0 8
95610 Обсерватория Перт 20.08.2019 +11.6 +5.9 +20.2 66 34 4.5 6 0.0 2 16
95611 Басселтон 20.08.2019 +10.2 +3.6 +18.7 81 46 +1 +18 +18 1.9 4 1033.5 1030.6 1035.7 1031.4 1028.5 1033.6 0.0 16
95612 Гингин 20.08.2019 +13.0 +2.2 +22.9 59 28 +2 +22 +22 3.4 7 1032.8 1030.0 1035.1 1023.7 1020.9 1026.0 0.0 16
95617 Национальный парк Шеннон 20.08.2019 +10.0 +3.3 +18.1 0.6 2 0.0 3 8
95621 Колли Восток 20.08.2019 +9.2 +0.9 +21.3 76 38 0.3 1 0.0 8
95625 Кандердин 20.08.2019 +9.6 +1.1 +21.0 73 32 -3 +22 +22 2.6 4 1034.2 1031.5 1036.4 1007.7 1005.1 1009.9 0.0 16
95629 Дауоллину 20.08.2019 +11.3 +2.5 +21.2 56 23 0 +21 +21 3.8 7 1032.8 1030.1 1035.2 993.7 991.1 996.0 0.0 2 8
95632 Бриджтаун 20.08.2019 +9.0 +2.9 +19.2 84 46 +2 +20 +20 0.4 3 1034.0 1031.0 1036.4 1012.1 1009.2 1014.5 0.0 1 2 16
95634 Саутерн Кросс 20.08.2019 +10.4 -0.8 +21.3 58 22 -3 +21 +21 2.8 6 1034.4 1031.7 1036.8 992.4 989.8 994.7 0.0 16
95635 Хоптаун 20.08.2019 +12.7 +6.1 +19.3 77 43 +4 +20 +20 2.6 5 1034.0 1031.7 1036.2 1030.7 1028.4 1032.9 0.0 16
95636 Джакап 20.08.2019 +10.4 +2.4 +20.2 71 35 0 +20 +20 2.6 4 1034.5 1032.4 1036.7 997.5 995.4 999.6 0.0 16
95637 Озеро Грейс 20.08.2019 +9.6 +1.3 +19.1 76 38 0 +19 +19 1.1 5 1034.7 1032.4 1036.8 999.9 997.7 1002.0 0.0 16
95638 Эсперанс 20.08.2019 +12.0 +6.1 +19.6 75 45 +2 +20 +20 3.9 5 1035.3 1033.4 1037.3 1017.9 1016.1 1019.9 0.0 2 8
95639 Салмон Гамс 20.08.2019 +8.5 -0.9 +19.8 69 33 1.4 4 0.0 16
95640 Уондеринг 20.08.2019 +8.3 -0.4 +19.0 80 43 2.3 5 0.0 8
95641 Уичклифф 20.08.2019 +11.0 +4.8 +18.8 81 46 +5 +18 +18 1.6 5 1033.4 1030.8 1035.4 1023.5 1020.9 1025.5 0.0 1 8
95642 Норсман 20.08.2019 +8.9 +0.1 +20.1 69 34 -3 +19 +19 2.3 5 1034.9 1032.7 1037.6 1003.0 1000.9 1005.6 0.0 8
95644 Мунглинап Запад 20.08.2019 +11.8 +4.6 +21.3 79 36 +2 +21 +21 3.0 5 1034.7 1032.5 1036.8 1007.9 1005.8 1010.0 0.0 16
95646 Форрест 20.08.2019 +9.6 +0.2 +18.6 67 31 -4 +18 +18 2.6 5 200 м 1036.2 1034.0 1038.7 1016.7 1014.6 1019.2 10.0 10.0 0.0 16
95647 Уолпол Север 20.08.2019 +12.7 +7.4 +19.9 84 55 +6 +21 +21 1.8 4 1033.1 1030.5 1035.4 1024.1 1021.5 1026.4 0.0 16
95654 Уудинна 20.08.2019 +10.2 +4.1 +15.3 81 53 -1 +13 +13 5.4 9 1034.3 1033.3 1036.0 1023.6 1022.7 1025.3 0.0 8
95658 Олимпик Дэм 20.08.2019 +11.0 +3.6 +17.9 58 33 +1 +18 +18 3.4 6 1033.9 1032.0 1036.5 1021.7 1019.9 1024.3 1.0 1.0 0.0 16
95659 Минлатон 20.08.2019 +12.0 +9.3 +14.2 87 78 +7 +12 +12 6.4 8 1031.5 1030.6 1032.7 1027.5 1026.6 1028.7 0.0 1 16
95661 Порт-Линкольн 20.08.2019 +11.3 +6.3 +15.2 84 69 +3 +13 +13 5.3 10 1032.1 1031.3 1033.3 1031.1 1030.3 1032.3 6.9 6.9 0.0 2 16
95662 Миннипа Пирса 20.08.2019 +9.7 +4.5 +15.0 80 58 +1 +13 +13 4.1 6 1034.8 1033.9 1036.7 1014.6 1013.7 1016.4 0.0 8
95663 Камминс 20.08.2019 +10.2 +3.4 +14.7 95 77 0 +13 +13 4.3 8 1032.9 1031.8 1034.2 1025.4 1024.4 1026.7 0.0 1 4 16
95664 Уиолла 20.08.2019 +10.5 +3.4 +17.2 77 51 -1 +16 +16 3.7 6 1033.2 1031.4 1035.2 1032.0 1030.2 1034.0 9.4 9.4 0.0 16
95666 Порт Огаста 20.08.2019 +11.9 +5.4 +18.9 67 39 +1 +19 +19 4.0 6 1033.3 1031.3 1035.7 1031.5 1029.5 1033.9 7.0 7.0 0.0 16
95667 Клэр 20.08.2019 +9.5 +0.8 +6.8 +11.4 94 77 +3 +8 +8 4.6 7 1031.9 1031.0 1033.4 984.1 983.2 985.5 0.0 7
95670 Сноутаун 20.08.2019 +10.7 +6.1 +14.6 84 64 +2 +13 +13 4.9 7 1032.6 1031.5 1034.3 1019.2 1018.1 1020.9 0.0 1 2 16
95671 Розворти 20.08.2019 +10.4 +6.5 +13.9 98 92 +2 +11 +11 6.1 9 1031.1 1030.3 1032.6 1023.1 1022.3 1024.5 0.0 8
95676 Эдинбург 20.08.2019 +10.5 +6.5 +14.1 86 72 +4 +12 +12 5.0 8 1031.6 1030.6 1032.8 1029.5 1028.5 1030.7 9.9 9.9 0.0 1 3 16
95677 Парафилд 20.08.2019 +11.2 +6.4 +14.2 91 73 +3 +12 +12 4.8 7 5000 м 1031.3 1030.4 1032.6 1030.0 1029.1 1031.3 9.4 9.4 0.0 2 16
95678 Маунт Лофти 20.08.2019 +7.0 +5.8 +7.8 100 99 4.8 6 0.0 3 8 16
95687 Ренмарк 20.08.2019 +10.7 +3.6 +17.7 71 46 -1 +17 +17 5.6 8 1030.4 1028.7 1032.0 1026.5 1024.8 1028.1 8.6 8.6 0.0 16
95695 Уилкания 20.08.2019 +8.2 +0.6 +16.6 52 32 -4 +16 +16 4.0 6 1030.7 1028.8 1033.2 1019.1 1017.2 1021.6 0.0 16
95697 Айванхо 20.08.2019 +10.8 +4.8 +17.2 57 37 +1 +17 +17 3.9 5 1029.5 1027.5 1031.7 1017.2 1015.3 1019.4 0.0 16
95699 Уафт Клифс 20.08.2019 +10.6 +4.8 +17.7 44 30 +2 +17 +17 3.9 6 1030.8 1029.0 1033.4 1011.6 1009.9 1014.2 0.0 16
95704 Гриффит 20.08.2019 +7.2 -1.0 +15.0 76 48 -4 +13 +14 3.9 8 1028.0 1025.5 1030.0 1011.5 1009.0 1013.5 6.0 6.0 0.0 1 16
95705 Янко 20.08.2019 +7.7 +1.0 +14.4 78 51 3.3 6 0.0 16
95706 Наррандера 20.08.2019 +8.1 +0.2 +14.4 74 50 -4 +13 +13 4.1 6 1027.6 1024.9 1029.5 1009.8 1007.2 1011.7 8.0 8.0 0.0 1 16
95708 Кондоболин 20.08.2019 +8.8 +2.4 +14.6 59 45 -1 +13 +13 4.4 8 1028.3 1026.3 1030.0 1004.8 1002.8 1006.4 0.0 16
95709 Уайлонг Запад 20.08.2019 +8.5 +4.3 +13.4 66 51 0 +11 +11 4.9 8 1027.8 1025.4 1029.6 996.5 994.2 998.3 0.0 16
95710 Транги 20.08.2019 +8.5 +0.9 +16.6 50 31 -2 +16 +16 3.8 7 1028.3 1026.5 1030.2 1002.2 1000.4 1004.0 0.0 16
95715 Уолджетт 20.08.2019 +9.1 +0.6 +17.9 42 28 -3 +18 +18 3.9 6 1028.3 1026.7 1030.3 1012.0 1010.5 1014.0 0.0 16
95716 Гоулберн 20.08.2019 +5.7 +2.7 +8.7 73 59 -4 +4 +4 10.3 17 1023.3 1020.9 1024.7 947.3 945.0 948.5 5.6 5.6 0.0 16
95717 Паркс 20.08.2019 +4.9 -3.7 +13.8 73 48 -9 +12 +12 4.1 9 1027.9 1026.3 1029.5 988.7 987.2 990.2 3.3 3.3 0.0 16
95718 Кунамбл 20.08.2019 +8.2 0.0 +17.0 51 33 -4 +16 +16 4.4 8 1027.9 1026.5 1029.7 1005.9 1004.5 1007.6 0.0 16
95719 Даббо 20.08.2019 +8.0 -1.9 +17.0 56 33 -4 +15 +15 3.7 8 1027.6 1025.7 1029.4 993.2 991.3 994.9 0.0 24
95721 Коура 20.08.2019 +6.8 +1.0 +11.5 70 56 -2 +9 +9 3.8 7 1027.3 1025.2 1028.9 990.8 988.8 992.4 0.0 8
95722 Темора 20.08.2019 +6.0 -1.3 +12.0 80 59 -3 +9 +9 3.1 7 1027.6 1025.0 1029.4 993.4 990.9 995.2 0.0 16
95726 Ориндж 20.08.2019 +3.8 +0.8 +7.2 81 70 -6 +2 +3 7.1 9 1026.0 1024.8 1027.4 915.5 914.5 916.8 7.0 7.0 0.0 16
95728 Кунабарабран 20.08.2019 +7.9 +2.8 +13.5 53 34 -2 +12 +12 6.3 8 1026.1 1025.1 1027.6 950.3 949.4 951.7 0.0 16
95734 Наррабри 20.08.2019 +10.0 +0.9 +18.4 38 23 -1 +18 +18 3.6 6 1026.9 1024.8 1028.9 999.3 997.2 1001.2 0.0 16
95740 Ганнеда 20.08.2019 +9.0 -1.2 +18.8 44 21 -4 +18 +18 3.1 7 1026.3 1024.1 1028.1 994.5 992.4 996.3 0.0 16
95747 Меррерунди 20.08.2019 +7.6 +2.3 +14.1 49 28 -2 +12 +12 5.6 9 1024.4 1022.3 1025.8 939.1 937.2 940.4 0.0 16
95748 Вуллонгонг 20.08.2019 +13.3 +9.0 +18.6 45 31 +5 +18 +18 11.1 15 1019.9 1017.5 1022.7 1018.9 1016.5 1021.7 0.0 16
95749 Киама 20.08.2019 +13.6 +9.8 +18.4 40 28 7.3 11 0.0 16
95753 Ричмонд 20.08.2019 +10.4 0.0 +21.6 54 22 -2 +21 +21 3.1 8 1021.9 1019.2 1024.3 1019.5 1016.8 1021.9 0.0 16
95754 Меррива 20.08.2019 +9.0 +2.2 +17.2 53 30 -3 +16 +16 5.9 8 1025.4 1023.3 1027.0 980.4 978.4 981.9 0.0 16
95758 Скон 20.08.2019 +11.9 +5.7 +19.2 39 23 +3 +19 +19 4.8 7 1024.7 1022.3 1026.7 998.0 995.6 999.9 0.0 16
95762 Тамворт 20.08.2019 +8.1 -2.5 +17.8 47 25 -6 +17 +17 3.3 7 1026.1 1023.7 1028.1 978.7 976.4 980.6 0.0 24
95765 Сидней Олимпик Парк 20.08.2019 +12.2 +4.1 +21.2 51 27 3.3 5 0.0 16
95767 Куранбонг 20.08.2019 +14.3 +8.1 +21.4 38 22 +7 +21 +21 2.9 4 1021.9 1018.7 1024.4 1021.1 1017.9 1023.6 0.0 16
95770 Нора Хед 20.08.2019 +13.5 +7.8 +20.8 44 27 +6 +22 +22 2.6 3 1021.4 1018.6 1023.7 1019.0 1016.2 1021.3 0.0 16
95771 Сеснок 20.08.2019 +12.8 +5.9 +22.1 37 17 +2 +21 +21 5.1 7 1022.0 1018.5 1024.5 1014.5 1011.0 1017.0 0.0 16
95773 Армидейл 20.08.2019 +4.9 -3.6 +14.0 52 26 -10 +12 +12 5.9 8 1023.8 1023.0 1025.0 899.8 899.1 900.8 0.0 16
95774 Мангров Маунтин 20.08.2019 +10.5 +2.9 +19.7 45 19 3.6 5 0.0 16
95784 Тари 20.08.2019 +11.8 +3.0 +21.7 41 17 +1 +21 +21 3.2 6 1021.7 1018.7 1024.1 1020.6 1017.6 1023.0 0.0 16
95806 Стенхаус Бэй 20.08.2019 +13.0 +10.7 +15.3 72 59 +8 +13 +13 6.4 9 1030.7 1029.9 1031.6 1025.3 1024.5 1026.2 0.0 1 3 16
95807 Кингскот 20.08.2019 +10.8 +3.9 +15.8 82 64 +3 +14 +14 4.4 8 1029.9 1028.8 1031.2 1029.1 1028.0 1030.4 7.2 7.2 0.0 16
95815 Кит 20.08.2019 +10.1 +3.9 +14.3 89 74 0 +12 +12 5.8 10 1028.0 1026.7 1029.5 1024.6 1023.3 1026.1 0.0 1 2 16
95816 Роб 20.08.2019 +12.8 +11.2 +14.1 79 69 +8 +12 +12 6.4 7 1026.3 1025.1 1027.7 1025.9 1024.7 1027.3 0.0 2 16
95818 Мюррей Бридж 20.08.2019 +10.7 +5.2 +14.7 79 63 +2 +13 +13 4.8 7 1030.1 1029.2 1031.3 1024.5 1023.6 1025.7 0.0 8
95822 Дартмур 20.08.2019 +10.7 +7.7 +12.4 93 84 +5 +10 +10 4.9 7 1024.1 1022.4 1026.0 1017.8 1016.1 1019.7 0.0 2 5 16
95823 Падтауэй 20.08.2019 +11.3 +7.1 +14.4 86 77 5.4 8 0.0 8
95825 Кастертон 20.08.2019 +10.2 +7.5 +12.3 93 79 +4 +9 +9 7.4 10 1024.0 1022.5 1025.7 1008.0 1006.5 1009.7 0.0 8
95826 Портлэнд 20.08.2019 +12.3 +11.1 +13.6 +9 +11 +11 8.7 12 1022.0 1020.2 1024.3 1021.8 1020.0 1024.1 24
95827 Канагулк 20.08.2019 +9.7 +5.0 +13.0 97 88 +2 +11 +11 4.0 6 1025.5 1023.9 1027.2 1002.4 1000.9 1004.1 0.0 1 2 16
95831 Уолпеап 20.08.2019 +10.0 +3.2 +15.4 79 56 5.6 8 0.0 1 16
95832 Эденхоп 20.08.2019 +10.1 +6.4 +13.0 89 76 5.5 9 0.0 2 3 24
95833 Кайабрам 20.08.2019 +8.5 +2.6 +12.7 91 73 3.5 5 0.0 8
95835 Лонгеренонг 20.08.2019 +9.6 +3.6 +14.6 86 66 6.4 11 0.0 2 16
95836 Татура 20.08.2019 +8.0 +2.1 +12.3 92 79 4.1 7 0.0 8
95837 Рутерглен 20.08.2019 +7.4 +3.8 +10.6 90 76 2.2 4 0.0 16
95839 Хоршам 20.08.2019 +9.5 +3.3 +14.2 88 69 -1 +12 +12 7.0 11 1026.1 1024.3 1027.9 1009.6 1007.9 1011.4 7.5 7.5 0.0 24
95840 Уэстмер 20.08.2019 +9.6 +6.7 +12.4 88 74 +3 +9 +9 6.6 9 1023.5 1021.4 1025.5 995.9 993.9 997.9 0.0 16
95845 Колак 20.08.2019 +8.8 +6.6 +11.2 100 100 0 +6 +6 13.2 16 1020.6 1017.7 1022.5 988.9 986.2 990.8 0.0 4 16
95866 Аэропорт Эссендон 20.08.2019 +11.9 +8.4 +15.3 71 60 +6 +13 +13 7.0 9 1022.4 1019.2 1024.7 1012.8 1009.6 1015.1 8.6 7.4 0.0 16
95867 Скорсби Институт 20.08.2019 +11.2 +8.2 +14.6 71 57 3.4 6 0.0 16
95869 Дениликин 20.08.2019 +9.0 +3.4 +14.2 75 58 -1 +12 +12 5.8 9 1026.7 1024.4 1028.6 1015.1 1012.8 1017.0 0.0 16
95874 Вьюбанк 20.08.2019 +11.6 +8.2 +15.2 71 57 +6 +14 +14 4.6 7 1022.5 1019.6 1024.9 1014.4 1011.5 1016.8 0.0 16
95890 Яррам 20.08.2019 +11.4 +9.0 +13.1 77 70 +4 +10 +10 11.2 13 1017.1 1012.7 1019.6 1014.8 1010.4 1017.3 0.0 16
95896 Олбери 20.08.2019 +8.0 +4.7 +10.3 83 72 +2 +8 +8 3.5 6 1025.8 1022.0 1027.9 1005.7 1002.0 1007.8 9.3 9.3 0.0 16
95901 Маунт Бау Бау 20.08.2019 -0.2 -1.8 +1.0 100 99 7.1 10 0.0 2 4 16
95909 Тредбо 20.08.2019 -3.5 -4.9 -1.4 97 97 -17 -11 -11 14.8 19 1020.6 1017.5 1022.8 802.6 800.1 804.3 0.0 1 1 24
95913 Маунт Мурнапа 20.08.2019 +10.1 +6.6 +14.7 61 49 4.8 7 0.0 16
95916 Кабрамерра 20.08.2019 -1.1 -2.2 +1.0 99 99 6.3 14 0.0 1 2 16
95918 Орбост 20.08.2019 +13.0 +8.8 +18.9 54 46 +6 +19 +19 5.4 7 1017.6 1014.0 1020.1 1009.9 1006.4 1012.4 0.0 16
95925 Маунт Джинини 20.08.2019 -2.4 -4.2 -0.5 97 96 6.1 10 0.0 2 16
95929 Меримбула 20.08.2019 +13.7 +6.5 +21.1 44 29 +4 +21 +21 4.8 8 1017.1 1013.8 1020.0 1016.9 1013.6 1019.8 0.0 16
95931 Бега 20.08.2019 +13.0 +3.9 +19.9 44 29 +4 +20 +20 4.5 9 1017.3 1014.0 1020.1 1012.2 1008.9 1015.0 0.0 16
95936 Мельбурн Олимпик Парк 20.08.2019 +12.6 +9.6 +16.6 65 53 +8 +16 +16 4.0 6 1022.2 1019.4 1024.6 1021.3 1018.5 1023.7 0.0 24
95937 Моруя 20.08.2019 +12.7 +1.8 +21.5 42 21 -1 +21 +21 2.9 6 1018.1 1015.1 1020.6 1017.5 1014.5 1020.0 0.0 16
95940 Перпендикуляр Пойнт 20.08.2019 +12.4 +9.5 +16.1 50 38 +7 +16 +16 3.6 5 1019.5 1016.8 1021.6 1009.4 1006.7 1011.5 0.0 16
95952 Ньютон Крик 20.08.2019 +3.1 0.0 +1.6 +4.3 99 99 -8 -3 -3 13.9 20 1009.0 1004.2 1013.0 880.1 875.9 883.6 0.0 1 7 15
95954 Мыс Грим 20.08.2019 +11.1 +9.4 +11.7 99 92 +4 +7 +7 14.4 17 1012.2 1008.5 1015.4 1001.7 998.0 1004.9 9.8 9.8 0.0 3 8 24
95956 Ланчеон Хилл 20.08.2019 +8.1 +6.9 +8.9 100 99 9.6 12 0.0 5 8 16
95957 Виньярд 20.08.2019 +11.1 +9.4 +13.8 85 75 +5 +11 +11 10.1 13 3000 м 1009.6 1006.0 1012.5 1008.1 1004.5 1011.0 9.6 9.6 0.0 3 16
95958 Скотч Пик Дам 20.08.2019 +7.4 +5.9 +8.5 96 75 17.1 23 0.0 2 8 16
95959 Лайавени 20.08.2019 +3.8 +0.9 +7.1 100 99 -7 0 0 13.4 17 1005.6 1002.4 1008.3 884.1 881.3 886.5 0.0 1 5 16
95960 Девонпорт 20.08.2019 +11.9 +9.2 +14.8 80 71 +5 +12 +12 11.4 15 7000 м 1008.4 1005.4 1011.4 1007.2 1004.2 1010.2 8.9 8.9 0.0 2 1 16
95961 Лоу Роки Пойнт 20.08.2019 +11.0 0.0 +10.6 +11.1 94 79 +5 +6 +6 17.4 21 1005.1 1001.2 1009.3 1000.9 997.1 1005.1 0.0 8
95962 Уарра 20.08.2019 +7.4 +5.0 +9.1 87 68 8.8 13 0.0 4 8 16
95964 Лоу Хед 20.08.2019 +11.6 +9.7 +12.9 100 100 +4 +8 +8 15.5 19 1008.1 1004.9 1011.4 1007.7 1004.5 1011.0 0.0 1 16
95966 Аэропорт Лонстон 20.08.2019 +10.1 +6.4 +14.6 73 52 +2 +12 +12 8.7 14 1006.2 1002.1 1009.5 985.9 981.9 989.2 6.0 6.0 0.0 1 24
95967 Мыс Бруни 20.08.2019 +10.6 +9.1 +13.3 77 56 +5 +10 +10 13.1 21 1000.2 995.8 1005.0 993.0 988.6 997.8 0.0 2 7 16
95969 Кресси 20.08.2019 +10.8 +6.7 +15.7 67 47 7.8 13 0.0 1 16
95974 Фингал 20.08.2019 +12.1 +8.2 +16.4 54 40 4.7 11 0.0 1 16
95979 Маунт Веллингтон 20.08.2019 +1.6 -0.9 +3.8 96 78 22.6 27 0.0 3 6 16
95985 Остров Суон 20.08.2019 +11.7 +9.9 +12.7 84 78 +5 +8 +8 13.6 17 1007.7 1003.8 1011.0 1005.9 1002.0 1009.1 0.0 16
95986 Остров Тасман 20.08.2019 +10.0 +6.9 +12.9 74 61 +2 +11 +11 4.7 8 999.7 995.0 1004.3 971.1 966.6 975.6 0.0 3 4 16
95988 Остров Марии 20.08.2019 +13.0 +10.6 +16.7 60 48 +6 +15 +15 9.9 16 1001.1 995.6 1005.6 997.7 992.2 1002.2 0.0 1 2 16
96995 Остров Рождества 20.08.2019 +23.2 +22.4 +24.8 81 73 +28 +30 +30 7.4 8 1013.8 1011.5 1015.3 984.1 981.9 985.6 8
96996 Кокосовые острова 20.08.2019 +25.2 +22.9 +26.3 80 77 +31 +33 +33 6.5 10 1014.1 1012.0 1015.6 1013.6 1011.5 1015.1 7.7 7.3 1 8


САММАРИ за сутки: - архив


Саммари за месяц - Австралия
Саммари за год - Австралия

Выборка САММАРИ за определенную дату из архива: Австралия.

Выберите нужную дату (начиная с 1 января 1971 г.) и нажмите кнопку "Найти!".
Будут отображены суточные сводки погоды за запрошенную дату.
Щелкните по названию столбца для сортировки значений по возрастанию или убыванию.

Информация, представленная в этом разделе, является неофициальной и предназначена исключительно для личного использования в познавательных и исследовательских целях.


   Сменить регион